NCAR-RAP Real-Time Weather Data

Output produced by METARs form (23 June 2018  19:35 UTC)
found at http://weather.rap.ucar.edu/surface/
 
RJOR 231200Z 10003KT 080V150 9999 FEW010 SCT100 BKN150 23/17 Q1004
RJOR 231100Z 07003KT 9999 FEW010 SCT080 BKN100 22/17 Q1004
RJOR 231000Z 19002KT 9999 FEW030 SCT080 BKN100 23/17 Q1004
RJOR 230900Z 26005KT 9999 FEW030 SCT080 BKN100 23/16 Q1004
RJOR 230800Z 27007KT 9999 FEW030 BKN100 23/18 Q1004
RJOR 230700Z 31004KT 9999 FEW030 SCT100 BKN150 24/17 Q1003
RJOR 230600Z 31007KT 9999 FEW030 SCT120 BKN150 24/17 Q1003
RJOR 230500Z 14005KT 120V180 9999 FEW006 SCT120 BKN150 24/17 Q1002
RJOR 230400Z 14008KT 9999 -RA NSC 23/17 Q1003
RJOR 230300Z VRB02KT 9999 -RA NSC 24/15 Q1004
RJOR 230200Z 13004KT CAVOK 24/15 Q1004
RJOR 230100Z 11006KT 070V130 CAVOK 25/14 Q1003
RJOR 230000Z 13006KT 090V170 CAVOK 25/14 Q1003
RJOR 222300Z 16010KT CAVOK 24/12 Q1004
RJOR 222200Z 14010KT CAVOK 23/12 Q1004
RJOR 222130Z 13008KT CAVOK 23/13 Q1005
RJOR 222110Z 14008KT CAVOK 23/12 Q1005 RMK A2970
RJOR 221200Z 18003KT 9999 FEW035 BKN/// 21/17 Q1009
RJOR 221100Z 08001KT 9999 FEW035 BKN/// 22/16 Q1009
RJOR 221000Z 03003KT 9999 FEW035 BKN/// 22/16 Q1008
RJOR 220900Z 05003KT 9999 FEW035 BKN/// 24/15 Q1008
RJOR 220800Z 03003KT 9999 FEW035 BKN/// 24/15 Q1008
RJOR 220700Z 04006KT 9999 FEW035 BKN/// 25/15 Q1008
RJOR 220600Z 04007KT 9999 FEW040 BKN/// 25/15 Q1008
RJOR 220500Z 05006KT 9999 FEW040 BKN/// 25/14 Q1008
RJOR 220400Z 04007KT 9999 FEW040 BKN/// 24/15 Q1009
RJOR 220300Z 05008KT 9999 FEW040 BKN/// 25/16 Q1009
RJOR 220200Z 35006KT 9999 FEW040 BKN/// 26/15 Q1009
RJOR 220100Z 15003KT 090V190 CAVOK 26/13 Q1009
RJOR 220000Z 15008KT CAVOK 24/12 Q1009
RJOR 212300Z 14008KT CAVOK 22/11 Q1010
RJOR 212200Z 14010KT CAVOK 19/10 Q1009
RJOR 212130Z 14011KT CAVOK 18/11 Q1009
RJOR 212110Z 14010KT CAVOK 18/11 Q1009 RMK A2981
RJOR 211200Z 17005KT 9999 FEW040 20/15 Q1008
RJOR 211100Z 15003KT 110V230 9999 FEW040 21/15 Q1008
RJOR 211000Z 27007KT 9999 FEW040 SCT/// 21/17 Q1007
RJOR 210900Z 30008KT 9999 FEW040 22/18 Q1006
RJOR 210800Z 29009KT 9999 FEW040 23/17 Q1005